Time;durP1;ratioP1;P1;durP2;ratioP2;P2;SDS_P1;SDS_P2;PMS_P1;PMS_P2;Temp;Humidity;BMP_temperature;BMP_pressure;BME280_temperature;BME280_humidity;BME280_pressure;Samples;Min_cycle;Max_cycle;Signal;HPM_P1;HPM_P2
2022/11/24 00:00:48;;;;;;;21.58;4.03;;;9.90;99.90;;;;;;5033343;28;20385;-81
2022/11/24 00:03:14;;;;;;;23.70;3.33;;;9.80;99.90;;;;;;5033447;28;20120;-81
2022/11/24 00:05:40;;;;;;;18.70;4.25;;;9.80;99.90;;;;;;5032080;28;20025;-81
2022/11/24 00:08:05;;;;;;;22.25;3.58;;;9.80;99.90;;;;;;5015242;28;20095;-81
2022/11/24 00:10:32;;;;;;;20.95;3.10;;;9.80;99.90;;;;;;5033654;28;20029;-81
2022/11/24 00:12:58;;;;;;;23.65;3.85;;;9.80;99.90;;;;;;5032349;28;20495;-81
2022/11/24 00:15:23;;;;;;;23.65;4.13;;;9.70;99.90;;;;;;5033183;28;20132;-81
2022/11/24 00:17:49;;;;;;;19.90;2.55;;;9.80;99.90;;;;;;5033267;28;20034;-81
2022/11/24 00:20:15;;;;;;;18.90;2.72;;;9.80;99.90;;;;;;5015975;28;20033;-81
2022/11/24 00:22:41;;;;;;;20.00;2.88;;;9.80;99.90;;;;;;5033759;28;20044;-82
2022/11/24 00:25:06;;;;;;;20.40;2.88;;;9.80;99.90;;;;;;5015434;28;20034;-82
2022/11/24 00:27:32;;;;;;;19.52;2.80;;;9.90;99.90;;;;;;5015610;28;20044;-82
2022/11/24 00:29:58;;;;;;;20.02;2.92;;;9.80;99.90;;;;;;5033619;28;20042;-81
2022/11/24 00:32:27;;;;;;;16.73;3.30;;;9.80;99.90;;;;;;5016225;28;20030;-81
2022/11/24 00:34:53;;;;;;;16.65;4.03;;;9.80;99.90;;;;;;5030264;28;20461;-81
2022/11/24 00:37:18;;;;;;;16.95;3.03;;;9.80;99.90;;;;;;5032969;28;20613;-81
2022/11/24 00:39:44;;;;;;;20.05;2.67;;;9.90;99.90;;;;;;5033577;28;20033;-82
2022/11/24 00:42:09;;;;;;;19.63;3.05;;;9.80;99.90;;;;;;5015496;28;20110;-81
2022/11/24 00:44:35;;;;;;;17.52;2.83;;;9.80;99.90;;;;;;5015306;28;20040;-81
2022/11/24 00:47:01;;;;;;;21.20;2.85;;;9.80;99.90;;;;;;5032393;28;20045;-82
2022/11/24 00:49:26;;;;;;;17.75;3.00;;;9.80;99.90;;;;;;5031538;28;20045;-81
2022/11/24 00:51:52;;;;;;;23.85;3.45;;;9.70;99.90;;;;;;5015331;28;20080;-82
2022/11/24 00:54:17;;;;;;;17.23;3.35;;;9.70;99.90;;;;;;5032157;28;20468;-81
2022/11/24 00:56:43;;;;;;;26.80;3.72;;;9.70;99.90;;;;;;5015047;28;20419;-81
2022/11/24 00:59:09;;;;;;;19.80;3.15;;;9.70;99.90;;;;;;5014740;28;20034;-81
2022/11/24 01:01:35;;;;;;;12.77;2.35;;;9.70;99.90;;;;;;5015063;28;20038;-82
2022/11/24 01:04:00;;;;;;;19.85;3.80;;;9.70;99.90;;;;;;5035595;28;20033;-81
2022/11/24 01:06:28;;;;;;;21.13;2.75;;;9.80;99.90;;;;;;5018915;28;20109;-81
2022/11/24 01:08:55;;;;;;;21.83;2.60;;;9.80;99.90;;;;;;5036970;28;20036;-81
2022/11/24 01:11:25;;;;;;;13.48;2.53;;;9.80;99.90;;;;;;5036818;28;20029;-80
2022/11/24 01:13:53;;;;;;;16.33;2.22;;;9.70;99.90;;;;;;5036478;28;20029;-81
2022/11/24 01:16:28;;;;;;;18.73;3.13;;;9.80;99.90;;;;;;5036402;28;20029;-80
2022/11/24 01:18:54;;;;;;;26.20;3.10;;;9.80;99.90;;;;;;5035465;28;20029;-80
2022/11/24 01:21:21;;;;;;;21.02;2.78;;;9.80;99.90;;;;;;5036770;28;20034;-80
2022/11/24 01:23:47;;;;;;;18.33;2.72;;;9.80;99.90;;;;;;5019020;28;20052;-81
2022/11/24 01:26:19;;;;;;;21.23;3.50;;;9.80;99.90;;;;;;5037270;28;20025;-81
2022/11/24 01:28:45;;;;;;;23.00;2.53;;;9.70;99.90;;;;;;5037422;28;20029;-81
2022/11/24 01:31:11;;;;;;;15.27;2.38;;;9.80;99.90;;;;;;5035903;28;20414;-81
2022/11/24 01:33:37;;;;;;;17.00;2.10;;;9.80;99.90;;;;;;5034302;28;20542;-81
2022/11/24 01:36:04;;;;;;;17.23;2.83;;;9.80;99.90;;;;;;5035933;28;20026;-81
2022/11/24 01:38:30;;;;;;;27.30;2.95;;;9.80;99.90;;;;;;5035716;28;20030;-81
2022/11/24 01:41:05;;;;;;;16.52;2.33;;;9.80;99.90;;;;;;5034445;28;20049;-81
2022/11/24 01:43:31;;;;;;;20.17;2.70;;;9.80;99.90;;;;;;5035573;28;20025;-81
2022/11/24 01:46:00;;;;;;;20.00;2.63;;;9.80;99.90;;;;;;5034401;28;20036;-81
2022/11/24 01:48:38;;;;;;;22.77;2.83;;;9.80;99.90;;;;;;5018215;28;20080;-80
2022/11/24 01:51:16;;;;;;;16.13;2.15;;;9.80;99.90;;;;;;5035676;28;20026;-80
2022/11/24 01:53:46;;;;;;;18.27;2.40;;;9.80;99.90;;;;;;5033813;28;20041;-79
2022/11/24 01:56:12;;;;;;;18.20;2.45;;;9.90;99.90;;;;;;5033933;28;20026;-79
2022/11/24 01:58:40;;;;;;;19.45;2.60;;;9.80;99.90;;;;;;5017612;28;20087;-80
2022/11/24 02:01:07;;;;;;;20.90;2.47;;;9.80;99.90;;;;;;5035453;28;20029;-80
2022/11/24 02:03:36;;;;;;;13.38;1.80;;;9.90;99.90;;;;;;5033896;28;20052;-80
2022/11/24 02:06:10;;;;;;;14.02;2.72;;;9.80;99.90;;;;;;5034924;28;20466;-81
2022/11/24 02:08:58;;;;;;;19.40;3.10;;;9.80;99.90;;;;;;5035313;28;20037;-80
2022/11/24 02:11:26;;;;;;;19.58;2.47;;;9.70;99.90;;;;;;5017549;28;20056;-80
2022/11/24 02:13:53;;;;;;;16.70;2.22;;;9.70;99.90;;;;;;5033343;28;20025;-80
2022/11/24 02:16:19;;;;;;;22.13;3.05;;;9.70;99.90;;;;;;5034870;28;20112;-80
2022/11/24 02:18:45;;;;;;;16.42;2.75;;;9.70;99.90;;;;;;5033716;28;20469;-80
2022/11/24 02:21:13;;;;;;;23.80;3.38;;;9.70;99.90;;;;;;5033787;28;20418;-80
2022/11/24 02:24:04;;;;;;;22.20;3.30;;;9.70;99.90;;;;;;5033234;28;20091;-79
2022/11/24 02:26:40;;;;;;;17.63;2.67;;;9.70;99.90;;;;;;5034646;28;20033;-79
2022/11/24 02:29:06;;;;;;;23.33;2.53;;;9.60;99.90;;;;;;5035143;28;20029;-80
2022/11/24 02:31:32;;;;;;;19.02;3.25;;;9.60;99.90;;;;;;5017757;28;20485;-80
2022/11/24 02:33:58;;;;;;;18.02;2.92;;;9.70;99.90;;;;;;5035188;28;20056;-81
2022/11/24 02:36:23;;;;;;;17.67;2.50;;;9.60;99.90;;;;;;5035004;28;20129;-80
2022/11/24 02:38:49;;;;;;;17.15;2.17;;;9.70;99.90;;;;;;5016869;28;20047;-80
2022/11/24 02:41:21;;;;;;;25.52;2.90;;;9.70;99.90;;;;;;5017399;28;20038;-81
2022/11/24 02:44:00;;;;;;;19.30;2.58;;;9.70;99.90;;;;;;5033865;28;20021;-79
2022/11/24 02:46:26;;;;;;;17.67;2.05;;;9.70;99.90;;;;;;5034875;28;20128;-80
2022/11/24 02:48:52;;;;;;;16.38;2.03;;;9.70;99.90;;;;;;5034955;28;20533;-80
2022/11/24 02:51:18;;;;;;;24.25;2.88;;;9.60;99.90;;;;;;5034704;28;20419;-80
2022/11/24 02:53:43;;;;;;;18.60;2.42;;;9.70;99.90;;;;;;5034377;28;20072;-79
2022/11/24 02:56:09;;;;;;;17.50;2.53;;;9.70;99.90;;;;;;5017057;28;20539;-80
2022/11/24 02:58:34;;;;;;;15.90;2.20;;;9.60;99.90;;;;;;5033303;28;20045;-80
2022/11/24 03:01:00;;;;;;;19.98;3.30;;;9.60;99.90;;;;;;5033542;28;20030;-80
2022/11/24 03:03:26;;;;;;;15.45;2.00;;;9.60;99.90;;;;;;5035479;28;20485;-80
2022/11/24 03:05:52;;;;;;;20.70;2.33;;;9.60;99.90;;;;;;5017889;28;20032;-80
2022/11/24 03:08:17;;;;;;;18.13;1.80;;;9.60;99.90;;;;;;5017373;28;20037;-80
2022/11/24 03:10:43;;;;;;;14.65;1.92;;;9.60;99.90;;;;;;5017403;28;20038;-81
2022/11/24 03:13:09;;;;;;;18.90;3.00;;;9.60;99.90;;;;;;5034619;28;20150;-80
2022/11/24 03:15:35;;;;;;;18.63;2.28;;;9.60;99.90;;;;;;5033718;28;20130;-80
2022/11/24 03:18:02;;;;;;;18.00;2.80;;;9.60;99.90;;;;;;5035060;28;20029;-80
2022/11/24 03:20:28;;;;;;;16.88;2.60;;;9.60;99.90;;;;;;5034668;28;20025;-80
2022/11/24 03:22:53;;;;;;;17.02;2.25;;;9.60;99.90;;;;;;5033499;28;20462;-80
2022/11/24 03:25:19;;;;;;;25.27;3.10;;;9.60;99.90;;;;;;5016126;28;20385;-80
2022/11/24 03:27:45;;;;;;;15.85;2.33;;;9.60;99.90;;;;;;5033173;28;20087;-81
2022/11/24 03:30:12;;;;;;;18.67;2.33;;;9.50;99.90;;;;;;5017119;28;20440;-82
2022/11/24 03:32:37;;;;;;;16.48;2.45;;;9.50;99.90;;;;;;5034094;28;20100;-82
2022/11/24 03:35:03;;;;;;;23.55;2.15;;;9.50;99.90;;;;;;5032562;28;20132;-82
2022/11/24 03:37:29;;;;;;;24.25;2.65;;;9.50;99.90;;;;;;5034096;28;20538;-81
2022/11/24 03:39:55;;;;;;;19.70;2.33;;;9.50;99.90;;;;;;5034600;28;20113;-81
2022/11/24 03:42:21;;;;;;;22.02;3.30;;;9.50;99.90;;;;;;5034594;28;20057;-81
2022/11/24 03:44:47;;;;;;;20.80;2.47;;;9.50;99.90;;;;;;5016628;28;20112;-81
2022/11/24 03:47:12;;;;;;;19.77;3.22;;;9.50;99.90;;;;;;5034091;28;20041;-82
2022/11/24 03:49:40;;;;;;;20.65;2.70;;;9.50;99.90;;;;;;5032894;28;20038;-81
2022/11/24 03:52:06;;;;;;;22.27;2.55;;;9.50;99.90;;;;;;5032734;28;20513;-82
2022/11/24 03:54:32;;;;;;;20.70;3.03;;;9.50;99.90;;;;;;5033693;28;20033;-82
2022/11/24 03:56:57;;;;;;;23.88;2.78;;;9.60;99.90;;;;;;5034233;28;20116;-82
2022/11/24 03:59:23;;;;;;;18.48;3.00;;;9.50;99.90;;;;;;5034286;28;20083;-82
2022/11/24 04:01:49;;;;;;;22.25;3.53;;;9.60;99.90;;;;;;5015884;28;20036;-81
2022/11/24 04:04:14;;;;;;;17.00;2.80;;;9.60;99.90;;;;;;5034415;28;20037;-83
2022/11/24 04:06:40;;;;;;;19.52;2.88;;;9.60;99.90;;;;;;5033618;28;20033;-81
2022/11/24 04:09:06;;;;;;;18.80;2.92;;;9.60;99.90;;;;;;5034023;28;20037;-82
2022/11/24 04:14:18;;;;;;;26.35;3.67;;;9.50;99.90;;;;;;5018904;28;20393;-82
2022/11/24 04:16:43;;;;;;;23.45;2.75;;;9.50;99.90;;;;;;5033799;28;20476;-82
2022/11/24 04:19:09;;;;;;;19.88;3.58;;;9.50;99.90;;;;;;5016373;28;20112;-82
2022/11/24 04:21:35;;;;;;;19.02;2.75;;;9.40;99.90;;;;;;5015993;28;20072;-83
2022/11/24 04:24:00;;;;;;;22.23;3.00;;;9.50;99.90;;;;;;5032262;28;20052;-83
2022/11/24 04:26:26;;;;;;;19.73;2.85;;;9.50;99.90;;;;;;5033365;28;20469;-82
2022/11/24 04:28:52;;;;;;;20.20;3.25;;;9.50;99.90;;;;;;5015816;28;20034;-82
2022/11/24 04:31:17;;;;;;;19.33;2.40;;;9.60;99.90;;;;;;5016112;28;20068;-82
2022/11/24 04:33:43;;;;;;;17.50;2.65;;;9.60;99.90;;;;;;5014554;28;20082;-82
2022/11/24 04:36:09;;;;;;;21.13;2.90;;;9.60;99.90;;;;;;5033717;28;20087;-82
2022/11/24 04:38:34;;;;;;;17.38;3.00;;;9.50;99.90;;;;;;5032462;28;20069;-81
2022/11/24 04:41:04;;;;;;;18.38;2.33;;;9.50;99.90;;;;;;5015893;28;20032;-81
2022/11/24 04:43:30;;;;;;;17.35;2.92;;;9.60;99.90;;;;;;5033396;28;20529;-81
2022/11/24 04:45:59;;;;;;;27.00;3.60;;;9.50;99.90;;;;;;5033510;28;20036;-81
2022/11/24 04:48:25;;;;;;;17.38;3.15;;;9.50;99.90;;;;;;5015865;28;20103;-81
2022/11/24 04:50:50;;;;;;;24.33;3.70;;;9.50;99.90;;;;;;5033100;28;20037;-81
2022/11/24 04:53:16;;;;;;;18.42;2.83;;;9.50;99.90;;;;;;5033285;28;20443;-82
2022/11/24 04:55:41;;;;;;;21.50;3.40;;;9.50;99.90;;;;;;5015195;28;20033;-82
2022/11/24 04:58:09;;;;;;;22.70;3.03;;;9.50;99.90;;;;;;5015566;28;20037;-82
2022/11/24 05:00:35;;;;;;;19.63;2.83;;;9.50;99.90;;;;;;5032131;28;20026;-82
2022/11/24 05:03:01;;;;;;;19.83;3.30;;;9.50;99.90;;;;;;5024311;28;20164;-81
2022/11/24 05:05:26;;;;;;;19.95;3.03;;;9.60;99.90;;;;;;5033093;28;20033;-81
2022/11/24 05:07:52;;;;;;;14.43;2.47;;;9.60;99.90;;;;;;5032854;28;20034;-81
2022/11/24 05:10:36;;;;;;;18.38;2.78;;;9.60;99.90;;;;;;5033046;28;20484;-81
2022/11/24 05:13:12;;;;;;;18.40;2.72;;;9.60;99.90;;;;;;5033510;28;20105;-82
2022/11/24 05:15:39;;;;;;;16.42;2.55;;;9.50;99.90;;;;;;5015165;28;20068;-81
2022/11/24 05:18:07;;;;;;;18.92;3.22;;;9.60;99.90;;;;;;5033172;28;20037;-80
2022/11/24 05:20:33;;;;;;;15.38;1.80;;;9.50;99.90;;;;;;5015606;28;20072;-81
2022/11/24 05:23:03;;;;;;;13.23;1.50;;;9.60;99.90;;;;;;5031994;28;20072;-81
2022/11/24 05:25:29;;;;;;;15.50;2.17;;;9.50;99.90;;;;;;5015008;28;20032;-81
2022/11/24 05:28:01;;;;;;;17.05;1.80;;;9.60;99.90;;;;;;5015307;28;20042;-82
2022/11/24 05:30:27;;;;;;;13.95;1.40;;;9.50;99.90;;;;;;5033210;28;20033;-81
2022/11/24 05:32:53;;;;;;;13.32;1.55;;;9.50;99.90;;;;;;5015535;28;20034;-81
2022/11/24 05:35:19;;;;;;;13.57;1.50;;;9.60;99.90;;;;;;5015298;28;20401;-81
2022/11/24 05:37:46;;;;;;;7.03;1.33;;;9.50;99.90;;;;;;5032900;28;20043;-81
2022/11/24 05:40:15;;;;;;;7.60;0.93;;;9.50;99.90;;;;;;5033317;28;20127;-81
2022/11/24 05:42:40;;;;;;;9.70;1.15;;;9.60;99.90;;;;;;5031704;28;20385;-80
2022/11/24 05:45:10;;;;;;;10.68;1.08;;;9.50;99.90;;;;;;5031533;28;20031;-81
2022/11/24 05:47:36;;;;;;;9.23;1.40;;;9.50;99.90;;;;;;5031686;28;20079;-81
2022/11/24 05:50:03;;;;;;;10.75;1.90;;;9.50;99.90;;;;;;5035187;28;20041;-82
2022/11/24 05:52:29;;;;;;;10.02;1.58;;;9.50;99.90;;;;;;5036441;28;20036;-82
2022/11/24 05:54:54;;;;;;;7.47;1.10;;;9.50;99.90;;;;;;5036028;28;20029;-83
2022/11/24 05:57:20;;;;;;;9.63;0.98;;;9.50;99.90;;;;;;5002721;28;20378;-83
2022/11/24 05:59:45;;;;;;;9.43;1.45;;;9.50;99.90;;;;;;5018528;28;20037;-82
2022/11/24 06:02:12;;;;;;;6.38;0.80;;;9.50;99.90;;;;;;5002429;28;20036;-83
2022/11/24 06:04:38;;;;;;;8.25;1.10;;;9.50;99.90;;;;;;5018426;28;20029;-83
2022/11/24 06:07:07;;;;;;;6.82;0.98;;;9.50;99.90;;;;;;5018144;28;20394;-83
2022/11/24 06:09:38;;;;;;;7.63;1.25;;;9.50;99.90;;;;;;5034848;28;20037;-83
2022/11/24 06:12:06;;;;;;;10.48;1.30;;;9.50;99.90;;;;;;5018145;28;20025;-80
2022/11/24 06:14:31;;;;;;;9.77;1.10;;;9.50;99.90;;;;;;5035649;28;20358;-80
2022/11/24 06:16:57;;;;;;;7.00;0.75;;;9.50;99.90;;;;;;5018457;28;20037;-81
2022/11/24 06:19:22;;;;;;;6.07;0.98;;;9.40;99.90;;;;;;5035845;28;20128;-80
2022/11/24 06:21:48;;;;;;;9.52;1.13;;;9.40;99.90;;;;;;5035752;28;20135;-80
2022/11/24 06:24:14;;;;;;;5.18;1.08;;;9.50;99.90;;;;;;5017512;28;20025;-81
2022/11/24 06:26:40;;;;;;;7.03;0.88;;;9.40;99.90;;;;;;5018168;28;20025;-81
2022/11/24 06:29:06;;;;;;;8.88;2.35;;;9.40;99.90;;;;;;5034587;28;20474;-80
2022/11/24 06:31:32;;;;;;;9.35;1.15;;;9.40;99.90;;;;;;5035419;28;20028;-80
2022/11/24 06:33:59;;;;;;;6.47;1.15;;;9.40;99.90;;;;;;5035613;28;20041;-81
2022/11/24 06:36:25;;;;;;;4.38;0.70;;;9.40;99.90;;;;;;5035850;28;20083;-79
2022/11/24 06:38:51;;;;;;;6.97;0.80;;;9.40;99.90;;;;;;5034421;28;20120;-80
2022/11/24 06:41:17;;;;;;;3.08;0.80;;;9.40;99.90;;;;;;5035699;28;20053;-80
2022/11/24 06:43:43;;;;;;;5.63;1.05;;;9.40;99.90;;;;;;5017942;28;20465;-80
2022/11/24 06:46:10;;;;;;;5.55;1.30;;;9.40;99.90;;;;;;5035549;28;20033;-80
2022/11/24 06:48:35;;;;;;;5.60;0.85;;;9.40;99.90;;;;;;5034034;28;20097;-79
2022/11/24 06:51:04;;;;;;;11.32;1.17;;;9.40;99.90;;;;;;5035518;28;20037;-79
2022/11/24 06:53:31;;;;;;;6.03;1.05;;;9.40;99.90;;;;;;5035565;28;20175;-76
2022/11/24 06:56:01;;;;;;;8.40;1.10;;;9.40;99.90;;;;;;5017300;28;20030;-75
2022/11/24 06:58:27;;;;;;;4.57;0.90;;;9.40;99.90;;;;;;5034156;28;20033;-80
2022/11/24 07:00:53;;;;;;;5.95;1.00;;;9.50;99.90;;;;;;5000623;28;20164;-75
2022/11/24 07:03:19;;;;;;;9.68;1.98;;;9.50;99.90;;;;;;5000797;28;20048;-80
2022/11/24 07:05:45;;;;;;;5.95;1.67;;;9.50;99.90;;;;;;5033005;28;20511;-77
2022/11/24 07:08:11;;;;;;;7.60;1.83;;;9.50;99.90;;;;;;5013874;28;20099;-75
2022/11/24 07:10:38;;;;;;;9.55;2.10;;;9.50;99.90;;;;;;4996789;28;20038;-76
2022/11/24 07:13:06;;;;;;;8.10;2.30;;;9.50;99.90;;;;;;4981036;28;20422;-76
2022/11/24 07:15:32;;;;;;;6.80;2.20;;;9.40;99.90;;;;;;4997235;28;20041;-75
2022/11/24 07:18:00;;;;;;;7.07;2.50;;;9.50;99.90;;;;;;4997188;28;20033;-75
2022/11/24 07:20:26;;;;;;;9.35;2.92;;;9.50;99.90;;;;;;4970816;28;20391;-75
2022/11/24 07:22:58;;;;;;;8.55;3.30;;;9.50;99.90;;;;;;5014877;28;20040;-74
2022/11/24 07:25:26;;;;;;;7.72;3.38;;;9.40;99.90;;;;;;5011650;28;20036;-74
2022/11/24 07:28:05;;;;;;;7.78;2.70;;;9.50;99.90;;;;;;4996293;28;20038;-76
2022/11/24 07:30:30;;;;;;;7.53;2.70;;;9.50;99.90;;;;;;4987372;28;20042;-75
2022/11/24 07:33:00;;;;;;;13.48;2.83;;;9.50;99.90;;;;;;4996719;28;20029;-76
2022/11/24 07:35:28;;;;;;;9.15;2.55;;;9.60;99.90;;;;;;5006743;28;20394;-76
2022/11/24 07:37:58;;;;;;;6.60;2.50;;;9.70;99.90;;;;;;5013707;28;20092;-75
2022/11/24 07:40:25;;;;;;;6.22;2.47;;;9.70;99.90;;;;;;5010078;28;20047;-76
2022/11/24 07:42:51;;;;;;;5.72;2.30;;;9.70;99.90;;;;;;5029479;28;20062;-76
2022/11/24 07:45:17;;;;;;;9.98;2.55;;;9.70;99.90;;;;;;4996365;28;20026;-76
2022/11/24 07:47:42;;;;;;;6.47;2.80;;;9.80;99.90;;;;;;5012838;28;20107;-80
2022/11/24 07:50:10;;;;;;;7.38;3.30;;;9.70;99.90;;;;;;5013070;28;20112;-78
2022/11/24 07:52:36;;;;;;;7.30;2.97;;;9.80;99.90;;;;;;5014305;28;20038;-78
2022/11/24 07:55:03;;;;;;;6.88;2.90;;;9.80;99.90;;;;;;5013787;28;20029;-78
2022/11/24 07:57:29;;;;;;;11.13;4.30;;;9.80;99.90;;;;;;5012533;28;20042;-77
2022/11/24 07:59:55;;;;;;;7.38;3.97;;;9.80;99.90;;;;;;5014971;28;20041;-77
2022/11/24 08:02:21;;;;;;;11.15;5.18;;;9.80;99.90;;;;;;5014118;28;20034;-75
2022/11/24 08:04:46;;;;;;;8.95;4.72;;;9.80;99.90;;;;;;5013241;28;20037;-77
2022/11/24 08:07:12;;;;;;;10.88;5.10;;;9.80;99.90;;;;;;5014134;28;20084;-77
2022/11/24 08:09:38;;;;;;;13.27;5.63;;;9.80;99.90;;;;;;5013962;28;20033;-79
2022/11/24 08:12:04;;;;;;;10.65;5.68;;;9.80;99.90;;;;;;5014057;28;20077;-79
2022/11/24 08:14:29;;;;;;;12.75;5.90;;;9.80;99.90;;;;;;4998643;28;20033;-79
2022/11/24 08:16:56;;;;;;;11.52;5.72;;;9.80;99.90;;;;;;5014991;28;20038;-80
2022/11/24 08:19:21;;;;;;;11.70;7.03;;;9.80;99.90;;;;;;4997187;28;20034;-79
2022/11/24 08:21:47;;;;;;;12.73;6.00;;;9.80;99.90;;;;;;5015317;28;20042;-80
2022/11/24 08:24:14;;;;;;;8.13;5.28;;;9.80;99.90;;;;;;5014528;28;20033;-81
2022/11/24 08:26:41;;;;;;;12.07;6.15;;;9.70;99.90;;;;;;5018131;28;20164;-80
2022/11/24 08:29:07;;;;;;;12.25;5.80;;;9.70;99.90;;;;;;5016221;28;20046;-79
2022/11/24 08:31:34;;;;;;;10.85;4.93;;;9.80;99.90;;;;;;5017322;28;20137;-79
2022/11/24 08:34:01;;;;;;;10.07;4.55;;;9.70;99.90;;;;;;5032995;28;20109;-77
2022/11/24 08:36:27;;;;;;;10.43;4.70;;;9.80;99.90;;;;;;5033625;28;20363;-77
2022/11/24 08:38:58;;;;;;;11.65;4.50;;;9.80;99.90;;;;;;5033787;28;20041;-78
2022/11/24 08:41:24;;;;;;;10.85;3.75;;;9.80;99.90;;;;;;4983831;28;20026;-77
2022/11/24 08:43:50;;;;;;;9.93;4.22;;;9.80;99.90;;;;;;5007611;28;20393;-77
2022/11/24 08:46:17;;;;;;;9.13;3.88;;;9.80;99.90;;;;;;5011782;28;20052;-77
2022/11/24 08:48:47;;;;;;;9.05;3.67;;;9.90;99.90;;;;;;5012829;28;20030;-76
2022/11/24 08:51:17;;;;;;;9.27;3.80;;;9.80;99.90;;;;;;4995237;28;20034;-76
2022/11/24 08:53:44;;;;;;;9.38;3.47;;;9.90;99.90;;;;;;4976518;28;20030;-76
2022/11/24 08:56:11;;;;;;;8.85;3.40;;;9.90;99.90;;;;;;4994789;28;20065;-77
2022/11/24 08:58:38;;;;;;;12.55;3.60;;;9.90;99.90;;;;;;4982315;28;20141;-77
2022/11/24 09:01:06;;;;;;;10.38;3.58;;;9.90;99.90;;;;;;4976646;28;20031;-78
2022/11/24 09:03:33;;;;;;;10.07;3.33;;;9.90;99.90;;;;;;4993895;28;20027;-78
2022/11/24 09:05:59;;;;;;;8.40;3.25;;;9.90;99.90;;;;;;4992735;28;20490;-78
2022/11/24 09:08:24;;;;;;;8.10;2.80;;;9.90;99.90;;;;;;4993474;28;20038;-78
2022/11/24 09:10:50;;;;;;;11.90;3.20;;;9.90;99.90;;;;;;4992780;28;20153;-77
2022/11/24 09:13:16;;;;;;;11.75;3.00;;;9.90;99.90;;;;;;4992363;28;20074;-78
2022/11/24 09:15:41;;;;;;;11.73;3.30;;;10.00;99.90;;;;;;4996325;28;20505;-77
2022/11/24 09:18:07;;;;;;;7.53;2.53;;;10.00;99.90;;;;;;5011710;28;20037;-77
2022/11/24 09:20:33;;;;;;;12.25;2.65;;;10.00;99.90;;;;;;4995716;28;20030;-76
2022/11/24 09:22:58;;;;;;;10.45;2.78;;;10.00;99.90;;;;;;5011003;28;20022;-76
2022/11/24 09:25:24;;;;;;;10.63;2.72;;;10.00;99.90;;;;;;5016224;28;20054;-76
2022/11/24 09:27:57;;;;;;;14.63;3.33;;;10.10;99.90;;;;;;4999778;28;20041;-76
2022/11/24 09:30:23;;;;;;;9.05;2.13;;;10.00;99.90;;;;;;4999473;28;20038;-76
2022/11/24 09:32:48;;;;;;;7.97;2.60;;;10.00;99.90;;;;;;4999531;28;20034;-76
2022/11/24 09:35:14;;;;;;;8.45;2.40;;;10.00;99.90;;;;;;5029613;28;20054;-76
2022/11/24 09:37:43;;;;;;;12.88;2.50;;;10.10;99.90;;;;;;5002567;28;20033;-76
2022/11/24 09:40:13;;;;;;;11.07;2.40;;;10.00;99.90;;;;;;5019465;28;20057;-77
2022/11/24 09:43:06;;;;;;;9.70;2.53;;;10.10;99.90;;;;;;5018864;28;20548;-77
2022/11/24 09:45:57;;;;;;;14.07;2.53;;;10.10;99.90;;;;;;5018578;28;20112;-76
2022/11/24 09:48:30;;;;;;;11.88;2.50;;;10.10;99.90;;;;;;5036092;28;20072;-75
2022/11/24 09:50:59;;;;;;;14.93;2.70;;;10.10;99.90;;;;;;5018479;28;20040;-76
2022/11/24 09:53:43;;;;;;;12.63;2.40;;;10.20;99.90;;;;;;5018534;28;20056;-77
2022/11/24 09:56:17;;;;;;;11.18;2.40;;;10.30;99.90;;;;;;5017577;28;20040;-77
2022/11/24 09:59:18;;;;;;;7.57;2.65;;;10.30;99.90;;;;;;5036641;28;20041;-78
2022/11/24 10:01:45;;;;;;;8.57;1.88;;;10.30;99.90;;;;;;5015818;28;20481;-77
2022/11/24 10:04:24;;;;;;;11.25;2.17;;;10.40;99.90;;;;;;5019481;28;20180;-76
2022/11/24 10:07:43;;;;;;;11.18;1.92;;;10.40;99.90;;;;;;5018316;28;20458;-77
2022/11/24 10:10:12;;;;;;;10.30;1.67;;;10.50;99.90;;;;;;5005366;28;20102;-77
2022/11/24 10:13:15;;;;;;;12.77;1.85;;;10.60;99.90;;;;;;5035966;28;20036;-77
2022/11/24 10:16:06;;;;;;;9.05;1.58;;;10.60;99.90;;;;;;5035776;28;20087;-77
2022/11/24 10:19:11;;;;;;;13.90;2.50;;;10.60;99.90;;;;;;5018189;28;20037;-77
2022/11/24 10:21:53;;;;;;;15.02;2.00;;;10.70;99.90;;;;;;5035834;28;20071;-77
2022/11/24 10:24:24;;;;;;;12.80;1.80;;;10.70;99.90;;;;;;5035510;28;20029;-77
2022/11/24 10:26:58;;;;;;;21.02;2.38;;;10.80;99.90;;;;;;5034391;28;20025;-77
2022/11/24 10:29:40;;;;;;;10.25;1.60;;;10.80;99.90;;;;;;5035717;28;20036;-77
2022/11/24 10:32:31;;;;;;;12.83;2.10;;;10.80;99.90;;;;;;5018178;28;20036;-76
2022/11/24 10:35:11;;;;;;;11.73;2.28;;;10.90;99.90;;;;;;5011959;28;20052;-78
2022/11/24 10:37:42;;;;;;;10.40;1.92;;;10.90;99.90;;;;;;5035163;28;20032;-77
2022/11/24 10:40:21;;;;;;;11.52;2.50;;;10.90;99.90;;;;;;5017937;28;20389;-77
2022/11/24 10:42:47;;;;;;;7.43;1.92;;;11.00;99.90;;;;;;5017687;28;20021;-77
2022/11/24 10:45:17;;;;;;;11.82;1.98;;;11.00;99.90;;;;;;5035401;28;20048;-77
2022/11/24 10:47:44;;;;;;;12.25;1.95;;;11.00;99.90;;;;;;5017680;28;20033;-77
2022/11/24 10:50:26;;;;;;;10.35;1.58;;;11.00;99.90;;;;;;5034130;28;20095;-77
2022/11/24 10:53:17;;;;;;;13.15;2.13;;;11.10;99.90;;;;;;5017515;28;20116;-77
2022/11/24 10:56:05;;;;;;;12.93;1.92;;;11.00;99.90;;;;;;5034846;28;20087;-77
2022/11/24 10:58:33;;;;;;;15.43;2.17;;;11.00;99.90;;;;;;5017290;28;20386;-77
2022/11/24 11:01:20;;;;;;;13.93;2.15;;;11.10;99.90;;;;;;5018397;28;20033;-78
2022/11/24 11:03:46;;;;;;;12.10;2.15;;;11.00;99.90;;;;;;5021788;28;20034;-80
2022/11/24 11:06:19;;;;;;;15.45;1.98;;;11.10;99.90;;;;;;5015376;28;20076;-80
2022/11/24 11:08:45;;;;;;;;;;;11.00;99.90;;;;;;4997589;28;20080;-80
2022/11/24 11:11:27;;;;;;;13.68;2.47;;;11.10;99.90;;;;;;5013742;28;20587;-80
2022/11/24 11:13:54;;;;;;;21.40;2.07;;;11.10;99.90;;;;;;5013086;28;20121;-78
2022/11/24 11:16:28;;;;;;;12.30;1.80;;;11.10;99.90;;;;;;5016143;28;20057;-80
2022/11/24 11:18:54;;;;;;;17.80;2.22;;;11.10;99.90;;;;;;5016183;28;20118;-79
2022/11/24 11:21:37;;;;;;;17.13;2.00;;;11.20;99.90;;;;;;4998939;28;20109;-80
2022/11/24 11:24:15;;;;;;;15.45;2.47;;;11.30;99.90;;;;;;5014739;28;20086;-80
2022/11/24 11:26:42;;;;;;;13.18;1.73;;;11.30;99.90;;;;;;5000170;28;20034;-79
2022/11/24 11:29:07;;;;;;;14.60;2.42;;;11.30;99.90;;;;;;5018204;28;20429;-79
2022/11/24 11:31:37;;;;;;;15.85;2.78;;;11.30;99.90;;;;;;5018374;28;20026;-79
2022/11/24 11:34:08;;;;;;;15.48;1.85;;;11.40;99.90;;;;;;5018071;28;20054;-79
2022/11/24 11:36:38;;;;;;;20.73;2.70;;;11.40;99.90;;;;;;5018241;28;20385;-79
2022/11/24 11:39:04;;;;;;;19.95;3.10;;;11.40;99.90;;;;;;5018390;28;20137;-79
2022/11/24 11:41:33;;;;;;;14.57;2.55;;;11.50;99.90;;;;;;5031125;28;20038;-79
2022/11/24 11:44:25;;;;;;;13.82;2.55;;;11.40;99.90;;;;;;5030768;28;20407;-80
2022/11/24 11:46:53;;;;;;;14.10;2.67;;;11.50;99.90;;;;;;5006743;28;20092;-80
2022/11/24 11:49:18;;;;;;;18.75;2.67;;;11.50;99.90;;;;;;5013907;28;20112;-79
2022/11/24 11:52:21;;;;;;;16.75;2.08;;;11.60;99.90;;;;;;5014867;28;20252;-79
2022/11/24 11:55:25;;;;;;;14.48;2.20;;;11.60;99.90;;;;;;5014122;28;20026;-80
2022/11/24 11:58:11;;;;;;;13.25;2.08;;;11.70;99.90;;;;;;5014709;28;20029;-80
2022/11/24 12:00:43;;;;;;;22.70;2.45;;;11.70;99.90;;;;;;5014528;28;20037;-78
2022/11/24 12:03:29;;;;;;;17.52;3.25;;;11.80;99.90;;;;;;5029667;28;20029;-78
2022/11/24 12:06:33;;;;;;;18.80;2.60;;;11.80;99.90;;;;;;5014107;28;20026;-78
2022/11/24 12:09:40;;;;;;;17.42;2.25;;;11.90;99.90;;;;;;5012940;28;20037;-77
2022/11/24 12:12:33;;;;;;;15.80;2.25;;;12.00;99.90;;;;;;5011659;28;20108;-78
2022/11/24 12:15:10;;;;;;;18.25;2.47;;;12.00;99.70;;;;;;5013731;28;20107;-78
2022/11/24 12:18:01;;;;;;;17.25;2.13;;;12.00;99.30;;;;;;5012878;28;20045;-78
2022/11/24 12:21:13;;;;;;;22.80;3.58;;;12.00;99.60;;;;;;5011080;28;20033;-78
2022/11/24 12:24:00;;;;;;;15.98;2.65;;;12.20;99.70;;;;;;5011835;28;20034;-77
2022/11/24 12:26:37;;;;;;;20.65;2.35;;;12.30;99.70;;;;;;5013100;28;20026;-78
2022/11/24 12:29:09;;;;;;;19.38;2.50;;;12.30;99.50;;;;;;5011952;28;20029;-78
2022/11/24 12:31:44;;;;;;;17.20;2.47;;;12.40;99.40;;;;;;5012041;28;20258;-78
2022/11/24 12:34:20;;;;;;;19.98;3.50;;;12.50;99.40;;;;;;5015130;28;20049;-78
2022/11/24 12:37:04;;;;;;;15.73;3.17;;;12.60;98.90;;;;;;5030400;28;20435;-78
2022/11/24 12:39:56;;;;;;;16.80;2.05;;;12.70;98.60;;;;;;5013192;28;20057;-78
2022/11/24 12:42:59;;;;;;;16.58;2.40;;;12.70;98.00;;;;;;5014262;28;20500;-82
2022/11/24 12:45:45;;;;;;;19.65;2.30;;;12.80;98.00;;;;;;5009102;28;20128;-82
2022/11/24 12:48:32;;;;;;;14.30;2.05;;;12.80;98.10;;;;;;4993086;28;20050;-82
2022/11/24 12:50:59;;;;;;;14.38;2.83;;;12.90;98.10;;;;;;5031940;28;20025;-82
2022/11/24 12:53:29;;;;;;;17.27;2.85;;;13.10;98.10;;;;;;4999635;28;20030;-82
2022/11/24 12:56:06;;;;;;;13.00;2.10;;;13.10;97.80;;;;;;5015011;28;20034;-82
2022/11/24 12:58:53;;;;;;;13.63;2.47;;;13.20;97.90;;;;;;5033534;28;20543;-82
2022/11/24 13:01:41;;;;;;;21.95;2.40;;;13.30;97.70;;;;;;5019779;28;20072;-82
2022/11/24 13:04:30;;;;;;;15.98;2.97;;;13.40;97.10;;;;;;5036910;28;20041;-82